sensor_id;sensor_type;location;lat;lon;timestamp;temperature;humidity
18361;SHT31;9308;48.550;9.108;2023-05-27T00:01:26;16.27;53.57
18361;SHT31;9308;48.550;9.108;2023-05-27T00:03:51;16.16;53.87
18361;SHT31;9308;48.550;9.108;2023-05-27T00:06:16;16.24;53.88
18361;SHT31;9308;48.550;9.108;2023-05-27T00:08:42;16.31;53.73
18361;SHT31;9308;48.550;9.108;2023-05-27T00:11:07;16.10;54.02
18361;SHT31;9308;48.550;9.108;2023-05-27T00:13:33;16.07;54.08
18361;SHT31;9308;48.550;9.108;2023-05-27T00:15:58;16.03;54.02
18361;SHT31;9308;48.550;9.108;2023-05-27T00:18:23;16.10;53.82
18361;SHT31;9308;48.550;9.108;2023-05-27T00:20:49;15.89;54.22
18361;SHT31;9308;48.550;9.108;2023-05-27T00:23:15;16.01;54.15
18361;SHT31;9308;48.550;9.108;2023-05-27T00:25:40;16.17;54.23
18361;SHT31;9308;48.550;9.108;2023-05-27T00:28:06;15.82;54.41
18361;SHT31;9308;48.550;9.108;2023-05-27T00:30:31;15.89;54.46
18361;SHT31;9308;48.550;9.108;2023-05-27T00:32:57;15.91;54.12
18361;SHT31;9308;48.550;9.108;2023-05-27T00:35:23;15.71;55.22
18361;SHT31;9308;48.550;9.108;2023-05-27T00:37:48;15.40;55.91
18361;SHT31;9308;48.550;9.108;2023-05-27T00:40:15;15.45;55.63
18361;SHT31;9308;48.550;9.108;2023-05-27T00:42:44;15.63;54.86
18361;SHT31;9308;48.550;9.108;2023-05-27T00:45:10;15.55;55.38
18361;SHT31;9308;48.550;9.108;2023-05-27T00:47:36;15.65;55.46
18361;SHT31;9308;48.550;9.108;2023-05-27T00:50:03;15.66;55.22
18361;SHT31;9308;48.550;9.108;2023-05-27T00:52:29;15.50;55.57
18361;SHT31;9308;48.550;9.108;2023-05-27T00:54:54;15.44;55.50
18361;SHT31;9308;48.550;9.108;2023-05-27T00:57:21;15.66;55.42
18361;SHT31;9308;48.550;9.108;2023-05-27T00:59:47;15.65;55.27
18361;SHT31;9308;48.550;9.108;2023-05-27T01:02:12;15.68;55.27
18361;SHT31;9308;48.550;9.108;2023-05-27T01:04:38;15.55;55.26
18361;SHT31;9308;48.550;9.108;2023-05-27T01:07:24;15.58;55.58
18361;SHT31;9308;48.550;9.108;2023-05-27T01:09:58;15.76;54.93
18361;SHT31;9308;48.550;9.108;2023-05-27T01:15:03;15.85;54.58
18361;SHT31;9308;48.550;9.108;2023-05-27T01:17:31;15.13;56.64
18361;SHT31;9308;48.550;9.108;2023-05-27T01:19:58;15.52;55.61
18361;SHT31;9308;48.550;9.108;2023-05-27T01:22:30;15.52;55.70
18361;SHT31;9308;48.550;9.108;2023-05-27T01:24:56;15.48;55.91
18361;SHT31;9308;48.550;9.108;2023-05-27T01:27:22;15.11;56.78
18361;SHT31;9308;48.550;9.108;2023-05-27T01:29:51;15.23;56.38
18361;SHT31;9308;48.550;9.108;2023-05-27T01:37:25;15.28;56.28
18361;SHT31;9308;48.550;9.108;2023-05-27T01:39:52;15.00;57.32
18361;SHT31;9308;48.550;9.108;2023-05-27T01:42:19;14.80;57.98
18361;SHT31;9308;48.550;9.108;2023-05-27T01:44:46;15.03;56.86
18361;SHT31;9308;48.550;9.108;2023-05-27T01:47:12;14.86;57.60
18361;SHT31;9308;48.550;9.108;2023-05-27T01:49:37;14.62;58.05
18361;SHT31;9308;48.550;9.108;2023-05-27T01:52:03;14.55;58.55
18361;SHT31;9308;48.550;9.108;2023-05-27T01:54:28;14.87;57.69
18361;SHT31;9308;48.550;9.108;2023-05-27T01:56:54;15.04;57.06
18361;SHT31;9308;48.550;9.108;2023-05-27T01:59:19;14.97;57.09
18361;SHT31;9308;48.550;9.108;2023-05-27T02:01:45;14.82;57.68
18361;SHT31;9308;48.550;9.108;2023-05-27T02:04:10;14.71;58.18
18361;SHT31;9308;48.550;9.108;2023-05-27T02:06:36;14.93;57.43
18361;SHT31;9308;48.550;9.108;2023-05-27T02:09:02;14.85;57.89
18361;SHT31;9308;48.550;9.108;2023-05-27T02:11:29;14.48;58.62
18361;SHT31;9308;48.550;9.108;2023-05-27T02:13:54;14.69;58.27
18361;SHT31;9308;48.550;9.108;2023-05-27T02:16:21;14.61;58.45
18361;SHT31;9308;48.550;9.108;2023-05-27T02:18:49;14.79;58.08
18361;SHT31;9308;48.550;9.108;2023-05-27T02:21:15;14.65;58.03
18361;SHT31;9308;48.550;9.108;2023-05-27T02:23:41;14.77;57.78
18361;SHT31;9308;48.550;9.108;2023-05-27T02:26:06;14.85;57.96
18361;SHT31;9308;48.550;9.108;2023-05-27T02:28:32;14.77;57.92
18361;SHT31;9308;48.550;9.108;2023-05-27T02:30:59;14.95;57.51
18361;SHT31;9308;48.550;9.108;2023-05-27T02:33:24;14.72;58.09
18361;SHT31;9308;48.550;9.108;2023-05-27T02:35:50;14.72;57.84
18361;SHT31;9308;48.550;9.108;2023-05-27T02:38:15;14.49;58.56
18361;SHT31;9308;48.550;9.108;2023-05-27T02:40:40;14.49;58.82
18361;SHT31;9308;48.550;9.108;2023-05-27T02:43:06;14.39;58.85
18361;SHT31;9308;48.550;9.108;2023-05-27T02:45:31;14.54;58.99
18361;SHT31;9308;48.550;9.108;2023-05-27T02:47:57;14.61;58.72
18361;SHT31;9308;48.550;9.108;2023-05-27T02:50:26;14.49;58.49
18361;SHT31;9308;48.550;9.108;2023-05-27T02:52:52;14.44;58.76
18361;SHT31;9308;48.550;9.108;2023-05-27T02:55:17;14.52;58.73
18361;SHT31;9308;48.550;9.108;2023-05-27T02:57:43;14.35;58.78
18361;SHT31;9308;48.550;9.108;2023-05-27T03:00:10;14.28;59.47
18361;SHT31;9308;48.550;9.108;2023-05-27T03:02:36;14.52;59.00
18361;SHT31;9308;48.550;9.108;2023-05-27T03:05:02;14.04;59.67
18361;SHT31;9308;48.550;9.108;2023-05-27T03:07:28;14.31;59.39
18361;SHT31;9308;48.550;9.108;2023-05-27T03:09:56;14.54;58.55
18361;SHT31;9308;48.550;9.108;2023-05-27T03:12:22;14.17;59.72
18361;SHT31;9308;48.550;9.108;2023-05-27T03:14:49;14.13;59.98
18361;SHT31;9308;48.550;9.108;2023-05-27T03:17:14;14.27;59.70
18361;SHT31;9308;48.550;9.108;2023-05-27T03:19:39;14.18;59.75
18361;SHT31;9308;48.550;9.108;2023-05-27T03:22:05;14.10;59.99
18361;SHT31;9308;48.550;9.108;2023-05-27T03:24:32;13.94;60.38
18361;SHT31;9308;48.550;9.108;2023-05-27T03:26:59;14.04;60.59
18361;SHT31;9308;48.550;9.108;2023-05-27T03:29:24;14.00;60.51
18361;SHT31;9308;48.550;9.108;2023-05-27T03:31:50;14.09;60.11
18361;SHT31;9308;48.550;9.108;2023-05-27T03:34:15;13.93;60.65
18361;SHT31;9308;48.550;9.108;2023-05-27T03:36:41;14.24;59.72
18361;SHT31;9308;48.550;9.108;2023-05-27T03:39:08;14.30;59.69
18361;SHT31;9308;48.550;9.108;2023-05-27T03:41:34;14.17;59.98
18361;SHT31;9308;48.550;9.108;2023-05-27T03:43:59;14.30;59.44
18361;SHT31;9308;48.550;9.108;2023-05-27T03:46:25;14.41;59.73
18361;SHT31;9308;48.550;9.108;2023-05-27T03:48:50;14.44;59.32
18361;SHT31;9308;48.550;9.108;2023-05-27T03:51:15;14.18;59.58
18361;SHT31;9308;48.550;9.108;2023-05-27T03:53:41;14.04;60.25
18361;SHT31;9308;48.550;9.108;2023-05-27T03:56:06;13.82;60.91
18361;SHT31;9308;48.550;9.108;2023-05-27T03:58:32;14.00;60.50
18361;SHT31;9308;48.550;9.108;2023-05-27T04:00:57;14.22;59.82
18361;SHT31;9308;48.550;9.108;2023-05-27T04:03:23;14.30;59.84
18361;SHT31;9308;48.550;9.108;2023-05-27T04:05:48;14.22;60.07
18361;SHT31;9308;48.550;9.108;2023-05-27T04:08:13;14.24;60.21
18361;SHT31;9308;48.550;9.108;2023-05-27T04:10:39;14.07;60.43
18361;SHT31;9308;48.550;9.108;2023-05-27T04:13:05;14.32;60.45
18361;SHT31;9308;48.550;9.108;2023-05-27T04:15:31;14.34;59.97
18361;SHT31;9308;48.550;9.108;2023-05-27T04:17:57;14.42;60.01
18361;SHT31;9308;48.550;9.108;2023-05-27T04:20:24;14.47;59.62
18361;SHT31;9308;48.550;9.108;2023-05-27T04:22:49;14.52;59.79
18361;SHT31;9308;48.550;9.108;2023-05-27T04:25:15;14.59;59.91
18361;SHT31;9308;48.550;9.108;2023-05-27T04:27:40;14.58;59.81
18361;SHT31;9308;48.550;9.108;2023-05-27T04:30:06;14.71;59.39
18361;SHT31;9308;48.550;9.108;2023-05-27T04:32:32;14.68;60.07
18361;SHT31;9308;48.550;9.108;2023-05-27T04:35:01;14.37;60.08
18361;SHT31;9308;48.550;9.108;2023-05-27T04:37:26;14.22;60.37
18361;SHT31;9308;48.550;9.108;2023-05-27T04:39:53;14.59;59.98
18361;SHT31;9308;48.550;9.108;2023-05-27T04:42:23;14.52;60.27
18361;SHT31;9308;48.550;9.108;2023-05-27T04:44:48;14.57;59.74
18361;SHT31;9308;48.550;9.108;2023-05-27T04:47:14;14.47;59.86
18361;SHT31;9308;48.550;9.108;2023-05-27T04:49:39;14.86;59.39
18361;SHT31;9308;48.550;9.108;2023-05-27T04:52:05;15.02;59.10
18361;SHT31;9308;48.550;9.108;2023-05-27T04:54:32;15.24;59.13
18361;SHT31;9308;48.550;9.108;2023-05-27T04:56:58;15.30;59.35
18361;SHT31;9308;48.550;9.108;2023-05-27T04:59:25;15.24;59.09
18361;SHT31;9308;48.550;9.108;2023-05-27T05:02:01;15.06;59.31
18361;SHT31;9308;48.550;9.108;2023-05-27T05:04:38;15.41;59.32
18361;SHT31;9308;48.550;9.108;2023-05-27T05:07:03;15.50;59.16
18361;SHT31;9308;48.550;9.108;2023-05-27T05:09:29;15.41;60.25
18361;SHT31;9308;48.550;9.108;2023-05-27T05:11:55;15.68;59.11
18361;SHT31;9308;48.550;9.108;2023-05-27T05:14:20;15.59;59.58
18361;SHT31;9308;48.550;9.108;2023-05-27T05:16:46;15.48;59.51
18361;SHT31;9308;48.550;9.108;2023-05-27T05:19:12;15.35;59.46
18361;SHT31;9308;48.550;9.108;2023-05-27T05:21:38;15.40;59.51
18361;SHT31;9308;48.550;9.108;2023-05-27T05:24:04;15.51;59.23
18361;SHT31;9308;48.550;9.108;2023-05-27T05:26:29;15.83;59.19
18361;SHT31;9308;48.550;9.108;2023-05-27T05:28:55;15.30;59.32
18361;SHT31;9308;48.550;9.108;2023-05-27T05:31:20;15.26;60.52
18361;SHT31;9308;48.550;9.108;2023-05-27T05:33:46;15.27;60.38
18361;SHT31;9308;48.550;9.108;2023-05-27T05:36:11;15.65;59.22
18361;SHT31;9308;48.550;9.108;2023-05-27T05:38:37;15.47;59.45
18361;SHT31;9308;48.550;9.108;2023-05-27T05:41:03;15.41;59.21
18361;SHT31;9308;48.550;9.108;2023-05-27T05:43:29;15.71;59.14
18361;SHT31;9308;48.550;9.108;2023-05-27T05:45:54;15.55;58.90
18361;SHT31;9308;48.550;9.108;2023-05-27T05:48:20;15.57;59.40
18361;SHT31;9308;48.550;9.108;2023-05-27T05:50:45;15.73;58.69
18361;SHT31;9308;48.550;9.108;2023-05-27T05:53:11;15.40;58.97
18361;SHT31;9308;48.550;9.108;2023-05-27T05:55:36;15.40;59.79
18361;SHT31;9308;48.550;9.108;2023-05-27T05:58:02;15.86;58.86
18361;SHT31;9308;48.550;9.108;2023-05-27T06:00:28;15.72;59.75
18361;SHT31;9308;48.550;9.108;2023-05-27T06:02:53;16.07;58.16
18361;SHT31;9308;48.550;9.108;2023-05-27T06:05:19;16.38;57.80
18361;SHT31;9308;48.550;9.108;2023-05-27T06:07:45;16.10;58.49
18361;SHT31;9308;48.550;9.108;2023-05-27T06:10:11;16.20;57.76
18361;SHT31;9308;48.550;9.108;2023-05-27T06:12:37;16.00;57.78
18361;SHT31;9308;48.550;9.108;2023-05-27T06:15:03;16.18;57.92
18361;SHT31;9308;48.550;9.108;2023-05-27T06:17:28;16.16;57.47
18361;SHT31;9308;48.550;9.108;2023-05-27T06:19:54;16.17;57.63
18361;SHT31;9308;48.550;9.108;2023-05-27T06:22:19;16.35;57.76
18361;SHT31;9308;48.550;9.108;2023-05-27T06:24:45;16.28;57.91
18361;SHT31;9308;48.550;9.108;2023-05-27T06:27:10;16.68;57.13
18361;SHT31;9308;48.550;9.108;2023-05-27T06:29:36;16.65;57.21
18361;SHT31;9308;48.550;9.108;2023-05-27T06:32:01;16.71;56.84
18361;SHT31;9308;48.550;9.108;2023-05-27T06:34:27;17.02;56.56
18361;SHT31;9308;48.550;9.108;2023-05-27T06:36:52;17.16;57.43
18361;SHT31;9308;48.550;9.108;2023-05-27T06:39:17;17.21;55.93
18361;SHT31;9308;48.550;9.108;2023-05-27T06:41:43;17.41;55.80
18361;SHT31;9308;48.550;9.108;2023-05-27T06:44:08;17.16;57.37
18361;SHT31;9308;48.550;9.108;2023-05-27T06:46:34;17.49;55.69
18361;SHT31;9308;48.550;9.108;2023-05-27T06:48:59;17.59;56.50
18361;SHT31;9308;48.550;9.108;2023-05-27T06:51:25;17.67;55.83
18361;SHT31;9308;48.550;9.108;2023-05-27T06:53:52;17.45;56.27
18361;SHT31;9308;48.550;9.108;2023-05-27T06:56:17;17.52;55.55
18361;SHT31;9308;48.550;9.108;2023-05-27T06:58:44;17.28;55.23
18361;SHT31;9308;48.550;9.108;2023-05-27T07:01:10;17.75;55.25
18361;SHT31;9308;48.550;9.108;2023-05-27T07:03:35;18.07;55.09
18361;SHT31;9308;48.550;9.108;2023-05-27T07:06:01;17.93;53.78
18361;SHT31;9308;48.550;9.108;2023-05-27T07:08:26;18.10;54.69
18361;SHT31;9308;48.550;9.108;2023-05-27T07:10:52;18.00;54.29
18361;SHT31;9308;48.550;9.108;2023-05-27T07:13:17;18.02;53.83
18361;SHT31;9308;48.550;9.108;2023-05-27T07:15:43;18.03;54.62
18361;SHT31;9308;48.550;9.108;2023-05-27T07:18:08;18.14;53.99
18361;SHT31;9308;48.550;9.108;2023-05-27T07:20:33;18.20;53.88
18361;SHT31;9308;48.550;9.108;2023-05-27T07:23:00;18.40;54.89
18361;SHT31;9308;48.550;9.108;2023-05-27T07:25:25;18.55;54.70
18361;SHT31;9308;48.550;9.108;2023-05-27T07:27:51;18.79;54.07
18361;SHT31;9308;48.550;9.108;2023-05-27T07:30:17;18.64;54.40
18361;SHT31;9308;48.550;9.108;2023-05-27T07:32:42;18.44;54.07
18361;SHT31;9308;48.550;9.108;2023-05-27T07:35:08;18.89;53.83
18361;SHT31;9308;48.550;9.108;2023-05-27T07:37:33;19.14;52.56
18361;SHT31;9308;48.550;9.108;2023-05-27T07:39:59;19.11;52.06
18361;SHT31;9308;48.550;9.108;2023-05-27T07:42:25;19.27;52.24
18361;SHT31;9308;48.550;9.108;2023-05-27T07:44:50;19.27;52.45
18361;SHT31;9308;48.550;9.108;2023-05-27T07:47:16;19.61;51.94
18361;SHT31;9308;48.550;9.108;2023-05-27T07:49:41;19.75;50.76
18361;SHT31;9308;48.550;9.108;2023-05-27T07:52:06;19.36;52.57
18361;SHT31;9308;48.550;9.108;2023-05-27T07:54:32;19.54;52.55
18361;SHT31;9308;48.550;9.108;2023-05-27T07:56:57;20.13;52.49
18361;SHT31;9308;48.550;9.108;2023-05-27T07:59:23;19.93;51.02
18361;SHT31;9308;48.550;9.108;2023-05-27T08:01:49;19.96;52.07
18361;SHT31;9308;48.550;9.108;2023-05-27T08:04:15;20.16;52.04
18361;SHT31;9308;48.550;9.108;2023-05-27T08:06:40;20.44;50.84
18361;SHT31;9308;48.550;9.108;2023-05-27T08:09:06;20.69;50.60
18361;SHT31;9308;48.550;9.108;2023-05-27T08:11:33;21.36;49.60
18361;SHT31;9308;48.550;9.108;2023-05-27T08:13:59;20.98;49.77
18361;SHT31;9308;48.550;9.108;2023-05-27T08:16:25;21.30;48.88
18361;SHT31;9308;48.550;9.108;2023-05-27T08:18:51;21.36;49.37
18361;SHT31;9308;48.550;9.108;2023-05-27T08:21:16;21.26;49.81
18361;SHT31;9308;48.550;9.108;2023-05-27T08:23:42;20.98;49.64
18361;SHT31;9308;48.550;9.108;2023-05-27T08:26:08;20.57;50.62
18361;SHT31;9308;48.550;9.108;2023-05-27T08:28:34;20.67;50.37
18361;SHT31;9308;48.550;9.108;2023-05-27T08:31:03;20.62;50.51
18361;SHT31;9308;48.550;9.108;2023-05-27T08:33:28;21.06;50.86
18361;SHT31;9308;48.550;9.108;2023-05-27T08:35:55;21.74;49.96
18361;SHT31;9308;48.550;9.108;2023-05-27T08:38:21;21.44;49.67
18361;SHT31;9308;48.550;9.108;2023-05-27T08:40:47;21.58;49.68
18361;SHT31;9308;48.550;9.108;2023-05-27T08:43:13;22.02;48.66
18361;SHT31;9308;48.550;9.108;2023-05-27T08:45:39;21.83;50.02
18361;SHT31;9308;48.550;9.108;2023-05-27T08:48:08;21.24;49.71
18361;SHT31;9308;48.550;9.108;2023-05-27T08:50:34;21.19;50.34
18361;SHT31;9308;48.550;9.108;2023-05-27T08:53:00;22.29;48.99
18361;SHT31;9308;48.550;9.108;2023-05-27T08:55:28;22.04;48.30
18361;SHT31;9308;48.550;9.108;2023-05-27T08:57:56;22.29;48.31
18361;SHT31;9308;48.550;9.108;2023-05-27T09:00:22;22.23;46.92
18361;SHT31;9308;48.550;9.108;2023-05-27T09:02:48;21.49;48.30
18361;SHT31;9308;48.550;9.108;2023-05-27T09:05:15;22.30;47.82
18361;SHT31;9308;48.550;9.108;2023-05-27T09:07:41;22.20;48.11
18361;SHT31;9308;48.550;9.108;2023-05-27T09:10:07;23.11;47.71
18361;SHT31;9308;48.550;9.108;2023-05-27T09:12:34;22.67;47.19
18361;SHT31;9308;48.550;9.108;2023-05-27T09:14:59;23.58;46.10
18361;SHT31;9308;48.550;9.108;2023-05-27T09:17:26;23.20;45.78
18361;SHT31;9308;48.550;9.108;2023-05-27T09:19:52;22.84;46.59
18361;SHT31;9308;48.550;9.108;2023-05-27T09:22:38;23.23;45.06
18361;SHT31;9308;48.550;9.108;2023-05-27T09:25:04;23.56;45.99
18361;SHT31;9308;48.550;9.108;2023-05-27T09:27:31;23.33;46.14
18361;SHT31;9308;48.550;9.108;2023-05-27T09:29:57;24.39;45.30
18361;SHT31;9308;48.550;9.108;2023-05-27T09:32:27;23.85;44.93
18361;SHT31;9308;48.550;9.108;2023-05-27T09:34:54;23.85;44.16
18361;SHT31;9308;48.550;9.108;2023-05-27T09:37:24;24.02;45.52
18361;SHT31;9308;48.550;9.108;2023-05-27T09:39:51;24.13;44.01
18361;SHT31;9308;48.550;9.108;2023-05-27T09:42:17;24.28;45.73
18361;SHT31;9308;48.550;9.108;2023-05-27T09:44:45;24.06;44.42
18361;SHT31;9308;48.550;9.108;2023-05-27T09:47:16;24.11;44.11
18361;SHT31;9308;48.550;9.108;2023-05-27T09:49:43;24.53;43.14
18361;SHT31;9308;48.550;9.108;2023-05-27T09:52:11;24.91;42.42
18361;SHT31;9308;48.550;9.108;2023-05-27T09:54:37;25.11;43.36
18361;SHT31;9308;48.550;9.108;2023-05-27T09:57:04;25.60;42.58
18361;SHT31;9308;48.550;9.108;2023-05-27T09:59:31;24.95;43.50
18361;SHT31;9308;48.550;9.108;2023-05-27T10:01:59;25.55;42.05
18361;SHT31;9308;48.550;9.108;2023-05-27T10:04:25;25.47;43.50
18361;SHT31;9308;48.550;9.108;2023-05-27T10:06:50;24.70;42.37
18361;SHT31;9308;48.550;9.108;2023-05-27T10:09:17;25.47;42.15
18361;SHT31;9308;48.550;9.108;2023-05-27T10:11:43;25.01;43.79
18361;SHT31;9308;48.550;9.108;2023-05-27T10:14:09;25.39;42.65
18361;SHT31;9308;48.550;9.108;2023-05-27T10:16:37;25.58;42.14
18361;SHT31;9308;48.550;9.108;2023-05-27T10:19:09;25.22;41.65
18361;SHT31;9308;48.550;9.108;2023-05-27T10:21:42;25.35;40.85
18361;SHT31;9308;48.550;9.108;2023-05-27T10:24:10;25.43;41.81
18361;SHT31;9308;48.550;9.108;2023-05-27T10:26:41;25.39;41.55
18361;SHT31;9308;48.550;9.108;2023-05-27T10:31:33;24.86;40.74
18361;SHT31;9308;48.550;9.108;2023-05-27T10:33:59;24.97;41.23
18361;SHT31;9308;48.550;9.108;2023-05-27T10:36:26;25.49;40.50
18361;SHT31;9308;48.550;9.108;2023-05-27T10:39:18;25.60;42.37
18361;SHT31;9308;48.550;9.108;2023-05-27T10:41:48;25.04;42.00
18361;SHT31;9308;48.550;9.108;2023-05-27T10:44:29;25.01;41.78
18361;SHT31;9308;48.550;9.108;2023-05-27T10:47:13;25.01;41.37
18361;SHT31;9308;48.550;9.108;2023-05-27T10:49:40;25.56;42.99
18361;SHT31;9308;48.550;9.108;2023-05-27T10:52:09;25.26;41.43
18361;SHT31;9308;48.550;9.108;2023-05-27T10:57:07;25.43;42.36
18361;SHT31;9308;48.550;9.108;2023-05-27T10:59:49;25.12;40.93
18361;SHT31;9308;48.550;9.108;2023-05-27T11:02:15;25.81;40.94
18361;SHT31;9308;48.550;9.108;2023-05-27T11:04:41;25.87;41.00
18361;SHT31;9308;48.550;9.108;2023-05-27T11:07:07;25.15;40.99
18361;SHT31;9308;48.550;9.108;2023-05-27T11:09:44;25.16;41.39
18361;SHT31;9308;48.550;9.108;2023-05-27T11:12:13;25.65;40.76
18361;SHT31;9308;48.550;9.108;2023-05-27T11:14:46;25.94;41.94
18361;SHT31;9308;48.550;9.108;2023-05-27T11:17:12;25.98;39.80
18361;SHT31;9308;48.550;9.108;2023-05-27T11:19:39;25.62;39.88
18361;SHT31;9308;48.550;9.108;2023-05-27T11:22:05;25.47;40.27
18361;SHT31;9308;48.550;9.108;2023-05-27T11:24:31;25.87;41.20
18361;SHT31;9308;48.550;9.108;2023-05-27T11:26:56;25.33;40.32
18361;SHT31;9308;48.550;9.108;2023-05-27T11:29:22;25.55;40.38
18361;SHT31;9308;48.550;9.108;2023-05-27T11:31:48;25.65;39.94
18361;SHT31;9308;48.550;9.108;2023-05-27T11:34:15;25.94;40.30
18361;SHT31;9308;48.550;9.108;2023-05-27T11:36:44;25.60;40.62
18361;SHT31;9308;48.550;9.108;2023-05-27T11:39:12;25.89;40.59
18361;SHT31;9308;48.550;9.108;2023-05-27T11:41:51;25.96;40.43
18361;SHT31;9308;48.550;9.108;2023-05-27T11:44:17;26.01;38.99
18361;SHT31;9308;48.550;9.108;2023-05-27T11:46:45;25.96;39.30
18361;SHT31;9308;48.550;9.108;2023-05-27T11:49:12;26.04;39.66
18361;SHT31;9308;48.550;9.108;2023-05-27T11:51:56;25.71;40.14
18361;SHT31;9308;48.550;9.108;2023-05-27T11:54:26;25.47;40.22
18361;SHT31;9308;48.550;9.108;2023-05-27T11:56:53;26.25;39.99
18361;SHT31;9308;48.550;9.108;2023-05-27T11:59:20;26.21;38.71
18361;SHT31;9308;48.550;9.108;2023-05-27T12:01:46;26.91;39.68
18361;SHT31;9308;48.550;9.108;2023-05-27T12:04:11;26.84;38.03
18361;SHT31;9308;48.550;9.108;2023-05-27T12:06:37;26.32;38.35
18361;SHT31;9308;48.550;9.108;2023-05-27T12:09:04;25.90;38.35
18361;SHT31;9308;48.550;9.108;2023-05-27T12:11:31;25.93;38.99
18361;SHT31;9308;48.550;9.108;2023-05-27T12:13:57;25.96;39.49
18361;SHT31;9308;48.550;9.108;2023-05-27T12:16:22;25.55;38.56
18361;SHT31;9308;48.550;9.108;2023-05-27T12:18:48;26.53;39.14
18361;SHT31;9308;48.550;9.108;2023-05-27T12:21:15;27.10;37.88
18361;SHT31;9308;48.550;9.108;2023-05-27T12:23:40;26.79;37.07
18361;SHT31;9308;48.550;9.108;2023-05-27T12:26:06;26.21;37.75
18361;SHT31;9308;48.550;9.108;2023-05-27T12:28:32;26.11;36.95
18361;SHT31;9308;48.550;9.108;2023-05-27T12:30:57;25.98;37.66
18361;SHT31;9308;48.550;9.108;2023-05-27T12:33:23;25.97;38.32
18361;SHT31;9308;48.550;9.108;2023-05-27T12:35:48;26.35;37.67
18361;SHT31;9308;48.550;9.108;2023-05-27T12:38:14;25.80;39.24
18361;SHT31;9308;48.550;9.108;2023-05-27T12:40:40;26.20;36.84
18361;SHT31;9308;48.550;9.108;2023-05-27T12:43:05;26.42;38.01
18361;SHT31;9308;48.550;9.108;2023-05-27T12:45:32;26.08;37.31
18361;SHT31;9308;48.550;9.108;2023-05-27T12:47:58;25.74;37.30
18361;SHT31;9308;48.550;9.108;2023-05-27T12:50:24;25.49;37.67
18361;SHT31;9308;48.550;9.108;2023-05-27T12:52:49;25.81;38.37
18361;SHT31;9308;48.550;9.108;2023-05-27T12:55:17;26.17;38.18
18361;SHT31;9308;48.550;9.108;2023-05-27T12:57:47;26.41;37.45
18361;SHT31;9308;48.550;9.108;2023-05-27T13:00:14;25.80;37.48
18361;SHT31;9308;48.550;9.108;2023-05-27T13:02:40;25.98;38.05
18361;SHT31;9308;48.550;9.108;2023-05-27T13:05:06;26.00;37.56
18361;SHT31;9308;48.550;9.108;2023-05-27T13:07:33;25.91;38.51
18361;SHT31;9308;48.550;9.108;2023-05-27T13:10:05;26.12;37.25
18361;SHT31;9308;48.550;9.108;2023-05-27T13:12:32;26.46;37.15
18361;SHT31;9308;48.550;9.108;2023-05-27T13:14:58;25.90;38.00
18361;SHT31;9308;48.550;9.108;2023-05-27T13:17:24;25.65;38.45
18361;SHT31;9308;48.550;9.108;2023-05-27T13:19:49;26.09;39.10
18361;SHT31;9308;48.550;9.108;2023-05-27T13:22:16;27.10;38.28
18361;SHT31;9308;48.550;9.108;2023-05-27T13:24:42;26.83;37.45
18361;SHT31;9308;48.550;9.108;2023-05-27T13:27:08;26.29;37.96
18361;SHT31;9308;48.550;9.108;2023-05-27T13:29:35;26.65;37.24
18361;SHT31;9308;48.550;9.108;2023-05-27T13:32:01;26.69;36.87
18361;SHT31;9308;48.550;9.108;2023-05-27T13:34:27;26.63;37.54
18361;SHT31;9308;48.550;9.108;2023-05-27T13:36:54;26.20;37.78
18361;SHT31;9308;48.550;9.108;2023-05-27T13:39:19;26.18;37.85
18361;SHT31;9308;48.550;9.108;2023-05-27T13:41:44;26.53;38.11
18361;SHT31;9308;48.550;9.108;2023-05-27T13:44:10;26.82;37.01
18361;SHT31;9308;48.550;9.108;2023-05-27T13:46:36;26.18;36.88
18361;SHT31;9308;48.550;9.108;2023-05-27T13:49:01;27.01;36.88
18361;SHT31;9308;48.550;9.108;2023-05-27T13:51:29;26.62;36.48
18361;SHT31;9308;48.550;9.108;2023-05-27T13:53:54;26.74;37.83
18361;SHT31;9308;48.550;9.108;2023-05-27T13:56:20;26.65;38.49
18361;SHT31;9308;48.550;9.108;2023-05-27T13:58:46;26.73;36.03
18361;SHT31;9308;48.550;9.108;2023-05-27T14:01:12;26.59;37.89
18361;SHT31;9308;48.550;9.108;2023-05-27T14:03:37;26.57;36.90
18361;SHT31;9308;48.550;9.108;2023-05-27T14:06:03;26.35;36.64
18361;SHT31;9308;48.550;9.108;2023-05-27T14:08:28;26.83;36.22
18361;SHT31;9308;48.550;9.108;2023-05-27T14:10:53;26.63;36.11
18361;SHT31;9308;48.550;9.108;2023-05-27T14:13:19;26.41;36.40
18361;SHT31;9308;48.550;9.108;2023-05-27T14:15:45;26.87;36.09
18361;SHT31;9308;48.550;9.108;2023-05-27T14:18:10;26.21;36.50
18361;SHT31;9308;48.550;9.108;2023-05-27T14:20:35;26.08;36.54
18361;SHT31;9308;48.550;9.108;2023-05-27T14:23:01;26.38;37.21
18361;SHT31;9308;48.550;9.108;2023-05-27T14:25:29;26.51;37.43
18361;SHT31;9308;48.550;9.108;2023-05-27T14:27:54;26.29;37.54
18361;SHT31;9308;48.550;9.108;2023-05-27T14:30:22;26.39;37.82
18361;SHT31;9308;48.550;9.108;2023-05-27T14:32:49;26.46;35.87
18361;SHT31;9308;48.550;9.108;2023-05-27T14:35:15;26.52;36.44
18361;SHT31;9308;48.550;9.108;2023-05-27T14:37:40;26.52;37.33
18361;SHT31;9308;48.550;9.108;2023-05-27T14:40:06;27.12;35.95
18361;SHT31;9308;48.550;9.108;2023-05-27T14:42:32;26.97;35.16
18361;SHT31;9308;48.550;9.108;2023-05-27T14:44:57;26.84;35.40
18361;SHT31;9308;48.550;9.108;2023-05-27T14:47:23;26.99;36.00
18361;SHT31;9308;48.550;9.108;2023-05-27T14:49:48;26.99;36.32
18361;SHT31;9308;48.550;9.108;2023-05-27T14:52:14;26.51;34.90
18361;SHT31;9308;48.550;9.108;2023-05-27T14:54:39;26.07;36.23
18361;SHT31;9308;48.550;9.108;2023-05-27T14:57:04;26.76;36.52
18361;SHT31;9308;48.550;9.108;2023-05-27T14:59:30;26.70;36.45
18361;SHT31;9308;48.550;9.108;2023-05-27T15:01:56;26.46;35.87
18361;SHT31;9308;48.550;9.108;2023-05-27T15:04:21;26.22;35.98
18361;SHT31;9308;48.550;9.108;2023-05-27T15:06:47;26.89;34.88
18361;SHT31;9308;48.550;9.108;2023-05-27T15:09:13;27.35;35.35
18361;SHT31;9308;48.550;9.108;2023-05-27T15:11:38;27.08;35.38
18361;SHT31;9308;48.550;9.108;2023-05-27T15:14:04;27.18;35.79
18361;SHT31;9308;48.550;9.108;2023-05-27T15:16:29;27.00;34.92
18361;SHT31;9308;48.550;9.108;2023-05-27T15:18:55;27.07;34.90
18361;SHT31;9308;48.550;9.108;2023-05-27T15:21:20;26.90;35.28
18361;SHT31;9308;48.550;9.108;2023-05-27T15:23:46;26.96;33.62
18361;SHT31;9308;48.550;9.108;2023-05-27T15:26:12;27.17;34.16
18361;SHT31;9308;48.550;9.108;2023-05-27T15:28:38;27.01;34.96
18361;SHT31;9308;48.550;9.108;2023-05-27T15:31:03;26.78;35.67
18361;SHT31;9308;48.550;9.108;2023-05-27T15:33:29;26.38;34.80
18361;SHT31;9308;48.550;9.108;2023-05-27T15:35:54;26.63;33.90
18361;SHT31;9308;48.550;9.108;2023-05-27T15:38:20;26.57;34.30
18361;SHT31;9308;48.550;9.108;2023-05-27T15:40:45;26.62;34.44
18361;SHT31;9308;48.550;9.108;2023-05-27T15:43:11;26.90;34.21
18361;SHT31;9308;48.550;9.108;2023-05-27T15:45:38;26.66;34.04
18361;SHT31;9308;48.550;9.108;2023-05-27T15:48:08;26.76;33.82
18361;SHT31;9308;48.550;9.108;2023-05-27T15:50:36;26.38;34.76
18361;SHT31;9308;48.550;9.108;2023-05-27T15:53:01;26.31;34.18